createdAt,value
2022-11-17T00:00:34.644Z,94961.41
2022-11-17T00:03:01.431Z,94963.84
2022-11-17T00:05:28.313Z,94959.00
2022-11-17T00:07:55.090Z,94955.00
2022-11-17T00:10:21.965Z,94949.38
2022-11-17T00:13:07.497Z,94946.97
2022-11-17T00:15:34.413Z,94938.97
2022-11-17T00:18:21.063Z,94939.38
2022-11-17T00:21:06.414Z,94937.97
2022-11-17T00:23:48.577Z,94929.53
2022-11-17T00:26:25.097Z,94928.94
2022-11-17T00:28:57.186Z,94929.94
2022-11-17T00:31:45.091Z,94919.34
2022-11-17T00:34:19.604Z,94938.97
2022-11-17T00:36:48.573Z,94939.38
2022-11-17T00:39:17.173Z,94934.75
2022-11-17T00:41:44.091Z,94932.56
2022-11-17T00:44:11.586Z,94934.34
2022-11-17T00:46:39.056Z,94934.97
2022-11-17T00:49:07.483Z,94931.56
2022-11-17T00:51:34.737Z,94932.13
2022-11-17T00:54:01.819Z,94941.97
2022-11-17T00:56:28.991Z,94942.56
2022-11-17T00:58:55.837Z,94939.38
2022-11-17T01:01:23.532Z,94943.78
2022-11-17T01:03:50.481Z,94938.13
2022-11-17T01:06:20.412Z,94933.97
2022-11-17T01:08:47.490Z,94937.75
2022-11-17T01:11:17.921Z,94939.19
2022-11-17T01:13:47.200Z,94938.56
2022-11-17T01:16:18.050Z,94935.78
2022-11-17T01:18:48.106Z,94930.13
2022-11-17T01:21:21.929Z,94919.34
2022-11-17T01:23:52.185Z,94918.91
2022-11-17T01:26:41.951Z,94919.34
2022-11-17T01:29:11.305Z,94925.34
2022-11-17T01:31:41.507Z,94920.94
2022-11-17T01:34:08.259Z,94922.94
2022-11-17T01:36:57.046Z,94912.72
2022-11-17T01:39:25.850Z,94916.50
2022-11-17T01:41:54.363Z,94910.09
2022-11-17T01:44:36.494Z,94914.50
2022-11-17T01:47:59.241Z,94914.09
2022-11-17T01:50:38.044Z,94906.06
2022-11-17T01:53:11.982Z,94892.81
2022-11-17T01:55:56.124Z,94892.81
2022-11-17T01:58:34.085Z,94889.81
2022-11-17T02:01:00.928Z,94895.22
2022-11-17T02:03:28.562Z,94897.22
2022-11-17T02:05:58.658Z,94896.03
2022-11-17T02:08:28.957Z,94893.22
2022-11-17T02:10:56.071Z,94891.19
2022-11-17T02:13:23.630Z,94896.41
2022-11-17T02:15:50.454Z,94877.16
2022-11-17T02:18:18.214Z,94885.75
2022-11-17T02:21:14.545Z,94890.38
2022-11-17T02:24:45.405Z,94892.19
2022-11-17T02:27:41.895Z,94887.19
2022-11-17T02:30:16.969Z,94886.59
2022-11-17T02:32:58.378Z,94889.19
2022-11-17T02:35:38.521Z,94884.75
2022-11-17T02:38:51.232Z,94881.53
2022-11-17T02:41:51.030Z,94878.31
2022-11-17T02:44:49.628Z,94872.25
2022-11-17T02:47:23.426Z,94863.25
2022-11-17T02:49:59.150Z,94861.03
2022-11-17T02:52:27.918Z,94845.41
2022-11-17T02:55:00.970Z,94850.22
2022-11-17T02:57:33.889Z,94840.56
2022-11-17T03:00:06.643Z,94844.13
2022-11-17T03:03:04.413Z,94846.13
2022-11-17T03:05:57.913Z,94843.75
2022-11-17T03:09:16.066Z,94838.97
2022-11-17T03:11:53.793Z,94832.28
2022-11-17T03:14:27.765Z,94822.47
2022-11-17T03:17:00.381Z,94819.03
2022-11-17T03:19:38.168Z,94803.56
2022-11-17T03:22:34.084Z,94794.69
2022-11-17T03:25:06.097Z,94789.28
2022-11-17T03:27:40.557Z,94794.66
2022-11-17T03:30:09.428Z,94788.81
2022-11-17T03:32:41.314Z,94785.38
2022-11-17T03:35:12.814Z,94783.78
2022-11-17T03:37:46.540Z,94772.50
2022-11-17T03:40:18.584Z,94761.19
2022-11-17T03:42:53.874Z,94765.78
2022-11-17T03:45:22.761Z,94752.94
2022-11-17T03:48:00.093Z,94743.09
2022-11-17T03:50:46.417Z,94735.03
2022-11-17T03:53:13.677Z,94738.88
2022-11-17T03:55:52.249Z,94738.97
2022-11-17T03:58:21.916Z,94756.34
2022-11-17T04:00:52.217Z,94752.53
2022-11-17T04:03:22.661Z,94769.88
2022-11-17T04:05:49.432Z,94766.84
2022-11-17T04:08:16.773Z,94748.25
2022-11-17T04:11:01.742Z,94750.31
2022-11-17T04:13:47.194Z,94744.69
2022-11-17T04:16:13.958Z,94731.97
2022-11-17T04:18:40.700Z,94731.97
2022-11-17T04:21:07.462Z,94733.38
2022-11-17T04:23:34.503Z,94735.31
2022-11-17T04:26:20.249Z,94730.53
2022-11-17T04:28:50.074Z,94724.41
2022-11-17T04:31:28.762Z,94728.97
2022-11-17T04:34:04.143Z,94718.81
2022-11-17T04:36:32.743Z,94727.66
2022-11-17T04:39:00.465Z,94720.84
2022-11-17T04:41:47.756Z,94722.44
2022-11-17T04:44:17.477Z,94711.56
2022-11-17T04:46:45.905Z,94707.16
2022-11-17T04:49:14.944Z,94709.59
2022-11-17T04:51:42.748Z,94715.22
2022-11-17T04:54:11.839Z,94716.13
2022-11-17T04:56:39.468Z,94729.56
2022-11-17T04:59:07.433Z,94721.94
2022-11-17T05:01:34.870Z,94718.38
2022-11-17T05:04:10.504Z,94710.78
2022-11-17T05:06:44.039Z,94698.44
2022-11-17T05:09:16.638Z,94704.00
2022-11-17T05:12:02.166Z,94711.91
2022-11-17T05:14:29.753Z,94703.22
2022-11-17T05:17:10.425Z,94704.19
2022-11-17T05:19:46.509Z,94703.38
2022-11-17T05:22:35.883Z,94714.31
2022-11-17T05:25:03.415Z,94712.59
2022-11-17T05:27:30.194Z,94721.97
2022-11-17T05:29:56.964Z,94722.63
2022-11-17T05:32:23.721Z,94738.66
2022-11-17T05:34:50.570Z,94733.88
2022-11-17T05:37:17.356Z,94740.25
2022-11-17T05:39:44.119Z,94750.50
2022-11-17T05:42:11.197Z,94760.75
2022-11-17T05:44:38.053Z,94764.44
2022-11-17T05:47:04.871Z,94773.63
2022-11-17T05:49:31.626Z,94783.13
2022-11-17T05:51:58.389Z,94774.59
2022-11-17T05:54:27.019Z,94774.56
2022-11-17T05:57:04.732Z,94787.66
2022-11-17T05:59:59.501Z,94773.03
2022-11-17T06:02:32.235Z,94773.00
2022-11-17T06:04:58.968Z,94789.88
2022-11-17T06:07:26.304Z,94784.47
2022-11-17T06:09:53.550Z,94799.22
2022-11-17T06:12:20.630Z,94793.31
2022-11-17T06:14:47.481Z,94792.59
2022-11-17T06:17:26.965Z,94799.94
2022-11-17T06:20:01.471Z,94793.63
2022-11-17T06:22:29.179Z,94790.44
2022-11-17T06:24:56.795Z,94788.56
2022-11-17T06:27:25.575Z,94794.38
2022-11-17T06:29:53.042Z,94788.13
2022-11-17T06:32:20.052Z,94775.44
2022-11-17T06:34:54.850Z,94762.13
2022-11-17T06:37:23.589Z,94777.25
2022-11-17T06:39:50.351Z,94749.94
2022-11-17T06:42:17.110Z,94753.72
2022-11-17T06:44:43.981Z,94750.94
2022-11-17T06:47:10.742Z,94749.50
2022-11-17T06:49:37.473Z,94763.00
2022-11-17T06:52:04.252Z,94752.13
2022-11-17T06:54:31.059Z,94754.06
2022-11-17T06:56:57.911Z,94748.91
2022-11-17T06:59:24.776Z,94750.78
2022-11-17T07:01:51.572Z,94752.38
2022-11-17T07:04:18.415Z,94750.19
2022-11-17T07:06:45.213Z,94764.53
2022-11-17T07:09:12.056Z,94768.91
2022-11-17T07:11:38.878Z,94770.84
2022-11-17T07:14:05.709Z,94772.03
2022-11-17T07:16:32.764Z,94781.25
2022-11-17T07:18:59.712Z,94782.91
2022-11-17T07:21:26.688Z,94775.50
2022-11-17T07:23:53.932Z,94795.28
2022-11-17T07:26:20.811Z,94783.06
2022-11-17T07:28:47.607Z,94789.31
2022-11-17T07:31:14.472Z,94795.72
2022-11-17T07:33:41.298Z,94784.44
2022-11-17T07:36:11.367Z,94765.78
2022-11-17T07:38:39.836Z,94782.97
2022-11-17T07:41:09.744Z,94770.22
2022-11-17T07:43:37.272Z,94775.22
2022-11-17T07:46:12.562Z,94799.59
2022-11-17T07:48:40.599Z,94815.03
2022-11-17T07:51:07.658Z,94798.59
2022-11-17T07:53:35.351Z,94811.84
2022-11-17T07:56:11.121Z,94805.16
2022-11-17T07:58:39.063Z,94816.91
2022-11-17T08:01:11.248Z,94806.16
2022-11-17T08:03:38.447Z,94815.91
2022-11-17T08:06:07.000Z,94810.25
2022-11-17T08:08:34.809Z,94815.25
2022-11-17T08:11:07.727Z,94817.81
2022-11-17T08:13:35.449Z,94817.50
2022-11-17T08:16:02.675Z,94821.84
2022-11-17T08:18:30.271Z,94818.53
2022-11-17T08:21:13.736Z,94800.34
2022-11-17T08:23:41.906Z,94809.94
2022-11-17T08:26:11.139Z,94810.50
2022-11-17T08:28:38.638Z,94819.53
2022-11-17T08:31:07.809Z,94825.09
2022-11-17T08:33:34.766Z,94829.16
2022-11-17T08:36:03.563Z,94820.06
2022-11-17T08:38:30.840Z,94837.81
2022-11-17T08:40:58.983Z,94835.94
2022-11-17T08:43:25.825Z,94811.06
2022-11-17T08:45:52.631Z,94807.88
2022-11-17T08:48:19.737Z,94820.56
2022-11-17T08:50:46.671Z,94822.22
2022-11-17T08:53:19.425Z,94818.63
2022-11-17T08:55:46.895Z,94808.47
2022-11-17T08:58:13.907Z,94806.75
2022-11-17T09:00:42.025Z,94800.25
2022-11-17T09:03:10.817Z,94797.41
2022-11-17T09:05:40.977Z,94802.34
2022-11-17T09:08:30.223Z,94796.06
2022-11-17T09:10:55.860Z,94791.44
2022-11-17T09:13:22.681Z,94802.72
2022-11-17T09:15:49.479Z,94807.50
2022-11-17T09:18:16.385Z,94810.13
2022-11-17T09:20:45.876Z,94794.50
2022-11-17T09:23:13.115Z,94797.66
2022-11-17T09:25:39.976Z,94782.44
2022-11-17T09:28:06.831Z,94775.03
2022-11-17T09:30:33.799Z,94788.00
2022-11-17T09:33:00.643Z,94772.38
2022-11-17T09:35:27.469Z,94792.19
2022-11-17T09:38:00.636Z,94771.56
2022-11-17T09:40:30.813Z,94776.06
2022-11-17T09:43:01.633Z,94779.91
2022-11-17T09:45:39.917Z,94779.13
2022-11-17T09:48:40.328Z,94781.53
2022-11-17T09:51:06.456Z,94757.44
2022-11-17T09:54:07.047Z,94768.63
2022-11-17T09:56:34.393Z,94767.78
2022-11-17T09:59:05.093Z,94773.25
2022-11-17T10:01:32.076Z,94781.78
2022-11-17T10:04:01.242Z,94788.69
2022-11-17T10:06:31.097Z,94801.78
2022-11-17T10:09:07.475Z,94806.50
2022-11-17T10:11:39.037Z,94802.09
2022-11-17T10:14:08.872Z,94804.81
2022-11-17T10:16:37.932Z,94801.25
2022-11-17T10:19:29.756Z,94800.34
2022-11-17T10:22:02.620Z,94797.81
2022-11-17T10:24:44.122Z,94798.06
2022-11-17T10:27:31.170Z,94791.34
2022-11-17T10:30:23.714Z,94799.59
2022-11-17T10:32:55.051Z,94789.22
2022-11-17T10:35:33.955Z,94801.22
2022-11-17T10:38:20.926Z,94793.06
2022-11-17T10:40:51.096Z,94795.94
2022-11-17T10:43:29.853Z,94789.19
2022-11-17T10:45:59.187Z,94774.84
2022-11-17T10:48:33.280Z,94777.88
2022-11-17T10:51:03.474Z,94775.53
2022-11-17T10:53:56.745Z,94777.28
2022-11-17T10:56:24.836Z,94768.56
2022-11-17T10:59:09.585Z,94776.47
2022-11-17T11:01:42.556Z,94774.88
2022-11-17T11:04:28.273Z,94774.84
2022-11-17T11:07:14.263Z,94779.50
2022-11-17T11:10:02.817Z,94785.66
2022-11-17T11:12:43.865Z,94778.66
2022-11-17T11:15:20.966Z,94777.25
2022-11-17T11:17:48.167Z,94784.75
2022-11-17T11:20:18.675Z,94794.13
2022-11-17T11:23:16.442Z,94800.97
2022-11-17T11:25:53.700Z,94814.84
2022-11-17T11:28:48.094Z,94827.25
2022-11-17T11:31:47.382Z,94813.44
2022-11-17T11:34:46.233Z,94796.53
2022-11-17T11:37:15.245Z,94810.56
2022-11-17T11:40:15.041Z,94807.84
2022-11-17T11:43:25.008Z,94817.13
2022-11-17T11:46:22.024Z,94824.72
2022-11-17T11:48:52.927Z,94831.94
2022-11-17T11:51:25.457Z,94780.91
2022-11-17T11:54:04.035Z,94783.03
2022-11-17T11:56:42.806Z,94787.84
2022-11-17T11:59:22.503Z,94787.44
2022-11-17T12:02:22.954Z,94784.00
2022-11-17T12:05:16.852Z,94789.50
2022-11-17T12:07:52.497Z,94794.38
2022-11-17T12:10:53.081Z,94797.25
2022-11-17T12:13:21.927Z,94795.78
2022-11-17T12:15:48.855Z,94786.91
2022-11-17T12:18:18.612Z,94769.31
2022-11-17T12:20:55.214Z,94770.09
2022-11-17T12:23:38.322Z,94772.25
2022-11-17T12:26:05.799Z,94772.88
2022-11-17T12:28:41.059Z,94777.53
2022-11-17T12:31:19.221Z,94773.31
2022-11-17T12:33:52.023Z,94785.38
2022-11-17T12:36:30.224Z,94768.91
2022-11-17T12:39:04.208Z,94772.41
2022-11-17T12:41:49.296Z,94766.34
2022-11-17T12:44:38.358Z,94770.47
2022-11-17T12:47:29.233Z,94784.50
2022-11-17T12:50:20.009Z,94775.63
2022-11-17T12:53:14.431Z,94781.69
2022-11-17T12:56:08.715Z,94775.28
2022-11-17T12:59:04.137Z,94770.31
2022-11-17T13:01:58.876Z,94772.84
2022-11-17T13:04:49.168Z,94774.47
2022-11-17T13:07:22.976Z,94784.66
2022-11-17T13:10:01.871Z,94762.59
2022-11-17T13:12:33.788Z,94778.13
2022-11-17T13:15:04.631Z,94777.22
2022-11-17T13:17:39.230Z,94784.16
2022-11-17T13:20:28.116Z,94781.47
2022-11-17T13:23:25.919Z,94781.91
2022-11-17T13:26:21.061Z,94770.63
2022-11-17T13:28:49.339Z,94771.50
2022-11-17T13:31:25.257Z,94765.69
2022-11-17T13:34:10.760Z,94765.69
2022-11-17T13:36:53.697Z,94760.75
2022-11-17T13:39:25.776Z,94765.91
2022-11-17T13:41:54.617Z,94769.84
2022-11-17T13:44:25.679Z,94774.75
2022-11-17T13:46:52.553Z,94769.94
2022-11-17T13:49:35.793Z,94778.59
2022-11-17T13:52:40.485Z,94783.22
2022-11-17T13:55:18.123Z,94786.81
2022-11-17T13:57:59.489Z,94792.53
2022-11-17T14:00:27.526Z,94791.19
2022-11-17T14:03:01.237Z,94790.41
2022-11-17T14:05:30.799Z,94790.59
2022-11-17T14:08:10.894Z,94786.38
2022-11-17T14:10:39.052Z,94790.72
2022-11-17T14:13:05.734Z,94789.28
2022-11-17T14:15:38.928Z,94793.72
2022-11-17T14:18:38.289Z,94806.69
2022-11-17T14:21:23.171Z,94802.88
2022-11-17T14:24:04.155Z,94797.69
2022-11-17T14:26:31.214Z,94801.91
2022-11-17T14:29:02.205Z,94806.38
2022-11-17T14:31:30.754Z,94801.09
2022-11-17T14:33:57.987Z,94796.53
2022-11-17T14:36:25.024Z,94803.66
2022-11-17T14:38:52.099Z,94800.38
2022-11-17T14:41:20.121Z,94791.16
2022-11-17T14:43:47.506Z,94788.31
2022-11-17T14:46:26.287Z,94799.13
2022-11-17T14:48:54.008Z,94809.59
2022-11-17T14:51:21.301Z,94802.69
2022-11-17T14:53:48.592Z,94797.66
2022-11-17T14:56:18.151Z,94812.00
2022-11-17T14:58:46.611Z,94799.81
2022-11-17T15:01:20.569Z,94800.84
2022-11-17T15:03:47.559Z,94802.88
2022-11-17T15:06:19.292Z,94796.31
2022-11-17T15:08:47.775Z,94790.41
2022-11-17T15:11:18.998Z,94792.84
2022-11-17T15:13:45.828Z,94792.81
2022-11-17T15:16:12.606Z,94798.75
2022-11-17T15:18:39.443Z,94788.59
2022-11-17T15:21:09.031Z,94794.25
2022-11-17T15:23:40.632Z,94796.13
2022-11-17T15:26:11.699Z,94788.03
2022-11-17T15:28:38.569Z,94791.03
2022-11-17T15:31:15.126Z,94785.63
2022-11-17T15:33:43.735Z,94778.13
2022-11-17T15:36:14.146Z,94780.16
2022-11-17T15:38:41.343Z,94776.69
2022-11-17T15:41:11.030Z,94781.78
2022-11-17T15:43:40.438Z,94773.81
2022-11-17T15:46:16.339Z,94781.63
2022-11-17T15:48:45.802Z,94779.94
2022-11-17T15:51:14.787Z,94784.50
2022-11-17T15:53:43.215Z,94784.78
2022-11-17T15:56:14.971Z,94778.97
2022-11-17T15:58:43.401Z,94776.34
2022-11-17T16:01:17.134Z,94774.91
2022-11-17T16:03:45.478Z,94778.22
2022-11-17T16:06:13.017Z,94777.91
2022-11-17T16:08:40.127Z,94763.91
2022-11-17T16:11:08.985Z,94773.75
2022-11-17T16:13:36.107Z,94763.81
2022-11-17T16:16:03.306Z,94755.59
2022-11-17T16:18:32.858Z,94769.44
2022-11-17T16:21:12.408Z,94765.00
2022-11-17T16:23:50.368Z,94776.31
2022-11-17T16:26:19.265Z,94773.38
2022-11-17T16:28:49.156Z,94767.66
2022-11-17T16:31:18.256Z,94777.69
2022-11-17T16:34:06.681Z,94773.47
2022-11-17T16:36:38.175Z,94765.34
2022-11-17T16:39:12.003Z,94758.63
2022-11-17T16:41:41.857Z,94754.66
2022-11-17T16:44:12.466Z,94757.19
2022-11-17T16:46:43.225Z,94755.59
2022-11-17T16:49:13.982Z,94757.03
2022-11-17T16:51:48.340Z,94769.56
2022-11-17T16:54:15.510Z,94754.56
2022-11-17T16:56:42.422Z,94763.47
2022-11-17T16:59:11.213Z,94759.47
2022-11-17T17:01:38.584Z,94750.94
2022-11-17T17:04:08.929Z,94749.00
2022-11-17T17:06:39.571Z,94755.84
2022-11-17T17:09:09.060Z,94748.41
2022-11-17T17:11:36.696Z,94740.19
2022-11-17T17:14:06.611Z,94743.03
2022-11-17T17:16:35.801Z,94742.91
2022-11-17T17:19:05.297Z,94740.63
2022-11-17T17:21:33.263Z,94737.66
2022-11-17T17:24:00.462Z,94738.94
2022-11-17T17:26:30.394Z,94750.34
2022-11-17T17:29:00.302Z,94765.06
2022-11-17T17:31:32.357Z,94763.00
2022-11-17T17:34:02.383Z,94765.75
2022-11-17T17:36:30.244Z,94773.97
2022-11-17T17:38:59.095Z,94776.72
2022-11-17T17:41:29.108Z,94775.13
2022-11-17T17:44:02.048Z,94769.75
2022-11-17T17:46:30.064Z,94768.03
2022-11-17T17:48:57.006Z,94763.47
2022-11-17T17:51:26.560Z,94757.06
2022-11-17T17:54:00.703Z,94737.66
2022-11-17T17:56:28.165Z,94741.31
2022-11-17T17:58:56.188Z,94739.25
2022-11-17T18:01:24.372Z,94738.59
2022-11-17T18:03:53.786Z,94733.81
2022-11-17T18:06:22.266Z,94739.53
2022-11-17T18:08:49.896Z,94729.25
2022-11-17T18:11:21.191Z,94733.28
2022-11-17T18:13:50.902Z,94735.44
2022-11-17T18:16:27.749Z,94743.22
2022-11-17T18:19:01.901Z,94738.88
2022-11-17T18:21:29.268Z,94736.94
2022-11-17T18:23:57.933Z,94741.50
2022-11-17T18:26:35.769Z,94732.06
2022-11-17T18:29:11.331Z,94738.31
2022-11-17T18:31:38.440Z,94745.72
2022-11-17T18:34:13.184Z,94747.53
2022-11-17T18:36:40.232Z,94757.69
2022-11-17T18:39:07.091Z,94754.47
2022-11-17T18:41:34.076Z,94764.94
2022-11-17T18:44:01.577Z,94751.16
2022-11-17T18:46:31.513Z,94749.22
2022-11-17T18:48:59.438Z,94749.66
2022-11-17T18:51:31.262Z,94755.06
2022-11-17T18:54:00.545Z,94751.84
2022-11-17T18:56:36.694Z,94747.09
2022-11-17T18:59:11.436Z,94752.44
2022-11-17T19:01:42.850Z,94745.38
2022-11-17T19:04:14.026Z,94747.69
2022-11-17T19:06:41.205Z,94743.56
2022-11-17T19:09:08.355Z,94735.59
2022-11-17T19:11:35.333Z,94735.44
2022-11-17T19:14:04.121Z,94739.19
2022-11-17T19:16:32.440Z,94739.16
2022-11-17T19:18:59.811Z,94738.53
2022-11-17T19:21:33.893Z,94732.72
2022-11-17T19:24:03.326Z,94733.41
2022-11-17T19:26:33.561Z,94747.41
2022-11-17T19:29:11.175Z,94734.56
2022-11-17T19:31:41.431Z,94732.06
2022-11-17T19:34:08.251Z,94728.41
2022-11-17T19:36:35.218Z,94743.66
2022-11-17T19:39:03.423Z,94738.44
2022-11-17T19:41:36.627Z,94737.97
2022-11-17T19:44:06.720Z,94746.41
2022-11-17T19:46:36.114Z,94747.19
2022-11-17T19:49:05.839Z,94737.50
2022-11-17T19:51:36.330Z,94755.06
2022-11-17T19:54:08.729Z,94746.63
2022-11-17T19:56:36.625Z,94756.09
2022-11-17T19:59:04.609Z,94748.91
2022-11-17T20:01:33.046Z,94752.66
2022-11-17T20:04:01.154Z,94741.16
2022-11-17T20:06:34.749Z,94756.09
2022-11-17T20:09:06.045Z,94744.81
2022-11-17T20:11:32.810Z,94761.44
2022-11-17T20:13:59.560Z,94754.63
2022-11-17T20:16:27.776Z,94757.78
2022-11-17T20:19:00.343Z,94755.19
2022-11-17T20:21:29.498Z,94759.88
2022-11-17T20:23:57.435Z,94752.56
2022-11-17T20:26:27.972Z,94755.06
2022-11-17T20:28:55.314Z,94746.06
2022-11-17T20:31:29.051Z,94753.94
2022-11-17T20:33:58.111Z,94754.25
2022-11-17T20:36:25.151Z,94750.50
2022-11-17T20:38:54.351Z,94755.28
2022-11-17T20:41:23.228Z,94752.22
2022-11-17T20:43:55.891Z,94749.59
2022-11-17T20:46:24.170Z,94755.88
2022-11-17T20:48:51.481Z,94749.47
2022-11-17T20:51:24.479Z,94753.34
2022-11-17T20:53:51.442Z,94747.31
2022-11-17T20:56:19.471Z,94755.75
2022-11-17T20:58:46.337Z,94755.75
2022-11-17T21:01:16.652Z,94752.53
2022-11-17T21:03:45.251Z,94756.41
2022-11-17T21:06:13.298Z,94765.06
2022-11-17T21:08:42.093Z,94758.47
2022-11-17T21:11:32.088Z,94759.50
2022-11-17T21:13:59.336Z,94756.66
2022-11-17T21:16:27.374Z,94760.28
2022-11-17T21:18:54.654Z,94771.09
2022-11-17T21:21:21.656Z,94770.78
2022-11-17T21:23:52.361Z,94773.16
2022-11-17T21:26:19.563Z,94768.38
2022-11-17T21:28:47.376Z,94768.47
2022-11-17T21:31:21.119Z,94765.28
2022-11-17T21:33:53.451Z,94772.66
2022-11-17T21:36:21.687Z,94775.47
2022-11-17T21:38:48.586Z,94771.69
2022-11-17T21:41:22.211Z,94775.91
2022-11-17T21:43:51.434Z,94778.69
2022-11-17T21:46:26.719Z,94773.88
2022-11-17T21:48:56.461Z,94780.25
2022-11-17T21:51:37.728Z,94780.63
2022-11-17T21:54:08.319Z,94788.69
2022-11-17T21:56:36.363Z,94793.34
2022-11-17T21:59:10.958Z,94786.94
2022-11-17T22:01:38.753Z,94790.28
2022-11-17T22:04:05.637Z,94788.22
2022-11-17T22:06:32.640Z,94797.13
2022-11-17T22:09:00.322Z,94787.44
2022-11-17T22:11:36.869Z,94805.94
2022-11-17T22:14:12.393Z,94812.31
2022-11-17T22:16:44.921Z,94822.31
2022-11-17T22:19:13.961Z,94824.63
2022-11-17T22:21:42.138Z,94835.78
2022-11-17T22:24:11.599Z,94845.38
2022-11-17T22:26:41.252Z,94850.63
2022-11-17T22:29:13.521Z,94851.88
2022-11-17T22:31:40.914Z,94849.97
2022-11-17T22:34:08.290Z,94844.22
2022-11-17T22:36:35.107Z,94852.78
2022-11-17T22:39:01.943Z,94857.69
2022-11-17T22:41:28.751Z,94853.56
2022-11-17T22:43:57.187Z,94852.06
2022-11-17T22:46:28.911Z,94858.91
2022-11-17T22:48:56.199Z,94862.44
2022-11-17T22:51:43.394Z,94858.56
2022-11-17T22:54:10.526Z,94854.31
2022-11-17T22:56:37.463Z,94856.16
2022-11-17T22:59:04.474Z,94858.22
2022-11-17T23:01:31.506Z,94855.59
2022-11-17T23:03:59.656Z,94851.91
2022-11-17T23:06:29.816Z,94850.13
2022-11-17T23:08:58.090Z,94830.72
2022-11-17T23:11:41.838Z,94829.50
2022-11-17T23:14:12.834Z,94815.13
2022-11-17T23:16:40.291Z,94819.44
2022-11-17T23:19:09.380Z,94812.78
2022-11-17T23:21:36.260Z,94805.56
2022-11-17T23:24:04.419Z,94809.59
2022-11-17T23:26:31.286Z,94808.72
2022-11-17T23:28:58.208Z,94808.47
2022-11-17T23:31:27.120Z,94808.47
2022-11-17T23:33:54.113Z,94811.94
2022-11-17T23:36:22.284Z,94814.69
2022-11-17T23:38:50.717Z,94811.47
2022-11-17T23:41:20.458Z,94820.47
2022-11-17T23:43:51.457Z,94822.44
2022-11-17T23:46:21.261Z,94820.53
2022-11-17T23:48:48.547Z,94822.78
2022-11-17T23:51:20.290Z,94827.16
2022-11-17T23:53:47.139Z,94836.59
2022-11-17T23:56:15.297Z,94827.69
2022-11-17T23:58:43.377Z,94824.53
